ダーウィン の空港の天気 - METARとTAF

ダーウィン国際空港 ( YPDN / DRW ) - オーストラリア ノーザンテリトリーダーウィン
飛行場実況気象(Metar)
観測時間12/15 22:00 ACST (12/15 12:30 UTC)
風向・風速西 5m/s
視程10km以上
天気現象
少しの雲 雲底高度 670m
気温30℃
湿度70%
気圧1006hPa
METARYPDN 151230Z 27009KT 9999 FEW022 30/24 Q1006
過去の天気等 Google飛行場航空写真 Wunderground天気予報

過去48時間のMETAR

飛行場予報(TAF)
発表時間: 12/15 20:36 ACST (12/15 11:06 UTC)
予報対象時間: 15日21時 ACST ~ 17日3時 ACST
風向・風速西 5m/s
視程10km以上
全天の4割程度の雲 雲底高度 610m
16日10時 ACST から
風向・風速西 7m/s
視程10km以上
少しの雲 雲底高度 910m
16日19時 ACST から
風向・風速西 4m/s
視程10km以上
全天の4割程度の雲 雲底高度 610m
TAF YPDN 151106Z 1512/1618 26010KT 9999 SCT020
FM160100 28014KT 9999 FEW030
FM161000 27008KT 9999 SCT020